Time;durP1;ratioP1;P1;durP2;ratioP2;P2;SDS_P1;SDS_P2;PMS_P1;PMS_P2;Temp;Humidity;BMP_temperature;BMP_pressure;BME280_temperature;BME280_humidity;BME280_pressure;Samples;Min_cycle;Max_cycle;Signal;HPM_P1;HPM_P2
2022/03/09 00:00:45;;;;;;;1.20;1.20;;;15.90;63.80;;;;;;5075978;28;20044;-19
2022/03/09 00:03:10;;;;;;;1.65;1.55;;;16.00;63.70;;;;;;5056851;28;20109;-19
2022/03/09 00:05:36;;;;;;;1.50;1.40;;;16.00;64.00;;;;;;5058734;28;20053;-19
2022/03/09 00:08:01;;;;;;;1.50;1.40;;;15.90;63.10;;;;;;5058379;28;20037;-19
2022/03/09 00:10:27;;;;;;;2.45;1.60;;;16.00;62.90;;;;;;5062525;28;20056;-19
2022/03/09 00:12:53;;;;;;;1.30;1.20;;;16.00;62.90;;;;;;5077835;28;20040;-19
2022/03/09 00:15:19;;;;;;;1.40;1.30;;;16.00;63.00;;;;;;5081464;28;20509;-20
2022/03/09 00:17:44;;;;;;;1.55;1.17;;;15.90;62.90;;;;;;5069880;28;20124;-19
2022/03/09 00:20:10;;;;;;;1.50;1.40;;;15.90;63.10;;;;;;5076952;28;20075;-20
2022/03/09 00:22:35;;;;;;;1.42;1.33;;;15.90;63.10;;;;;;5061988;28;20136;-19
2022/03/09 00:25:02;;;;;;;1.60;1.50;;;15.90;64.00;;;;;;5066018;28;20048;-19
2022/03/09 00:27:29;;;;;;;1.65;1.55;;;15.90;63.20;;;;;;5075911;28;20090;-19
2022/03/09 00:29:55;;;;;;;1.73;1.63;;;15.80;63.20;;;;;;5061327;28;20570;-19
2022/03/09 00:32:21;;;;;;;1.40;1.20;;;15.80;63.20;;;;;;5071320;28;20447;-19
2022/03/09 00:34:46;;;;;;;1.48;1.38;;;15.80;63.20;;;;;;5058246;28;20052;-19
2022/03/09 00:37:12;;;;;;;1.67;1.58;;;15.90;63.10;;;;;;5067959;28;20045;-19
2022/03/09 00:39:37;;;;;;;1.15;1.15;;;15.90;63.00;;;;;;5075036;28;20055;-19
2022/03/09 00:42:03;;;;;;;1.20;1.15;;;15.90;63.10;;;;;;5064778;28;20056;-19
2022/03/09 00:44:29;;;;;;;1.42;1.33;;;15.90;63.10;;;;;;5072384;28;20085;-19
2022/03/09 00:46:55;;;;;;;2.00;1.05;;;15.80;63.20;;;;;;5074865;28;20516;-19
2022/03/09 00:49:20;;;;;;;1.00;1.00;;;15.80;63.10;;;;;;5062061;28;20048;-19
2022/03/09 00:51:46;;;;;;;1.20;1.10;;;15.80;63.00;;;;;;5067228;28;20120;-19
2022/03/09 00:54:11;;;;;;;1.40;1.30;;;15.80;63.10;;;;;;5066699;28;20033;-19
2022/03/09 00:56:37;;;;;;;1.30;1.20;;;15.80;63.10;;;;;;5068050;28;20045;-21
2022/03/09 00:59:03;;;;;;;1.10;1.00;;;15.80;63.20;;;;;;5057197;28;20037;-19
2022/03/09 01:01:28;;;;;;;1.30;1.20;;;15.80;63.10;;;;;;5068522;28;20181;-19
2022/03/09 01:03:54;;;;;;;1.13;1.02;;;15.80;63.20;;;;;;5068703;28;20032;-19
2022/03/09 01:06:19;;;;;;;1.30;1.20;;;15.80;63.30;;;;;;5064804;28;20092;-19
2022/03/09 01:08:45;;;;;;;1.30;1.20;;;15.80;63.10;;;;;;5068481;28;20047;-19
2022/03/09 01:11:10;;;;;;;1.08;1.05;;;15.80;63.00;;;;;;5072577;28;20040;-19
2022/03/09 01:13:37;;;;;;;1.10;1.10;;;15.80;63.00;;;;;;5069369;28;20561;-19
2022/03/09 01:16:02;;;;;;;1.17;1.05;;;15.80;63.00;;;;;;5075751;28;20131;-19
2022/03/09 01:18:28;;;;;;;0.95;0.95;;;15.80;63.00;;;;;;5073034;28;20064;-19
2022/03/09 01:20:54;;;;;;;1.40;1.27;;;15.80;63.00;;;;;;5057159;28;20053;-19
2022/03/09 01:23:19;;;;;;;1.60;0.90;;;15.80;63.00;;;;;;5072913;28;20037;-19
2022/03/09 01:25:45;;;;;;;1.30;1.20;;;15.80;62.90;;;;;;5072508;28;20048;-19
2022/03/09 01:28:10;;;;;;;1.08;1.02;;;15.80;63.00;;;;;;5076718;28;20489;-19
2022/03/09 01:30:36;;;;;;;2.08;1.15;;;15.80;63.00;;;;;;5068484;28;20048;-19
2022/03/09 01:33:02;;;;;;;1.30;1.20;;;15.80;63.00;;;;;;5057921;28;20421;-19
2022/03/09 01:35:27;;;;;;;1.10;1.00;;;15.80;63.00;;;;;;5057504;28;20041;-19
2022/03/09 01:37:53;;;;;;;2.72;1.10;;;15.80;62.90;;;;;;5061586;28;20500;-19
2022/03/09 01:40:18;;;;;;;1.05;0.95;;;15.80;63.00;;;;;;5067444;28;20135;-19
2022/03/09 01:42:44;;;;;;;0.80;0.80;;;15.80;62.80;;;;;;5039730;28;20136;-19
2022/03/09 01:45:11;;;;;;;1.75;1.00;;;15.80;62.80;;;;;;5061931;28;20580;-19
2022/03/09 01:47:36;;;;;;;0.80;0.80;;;15.80;62.60;;;;;;5063521;28;20041;-19
2022/03/09 01:50:03;;;;;;;1.17;1.08;;;15.80;62.70;;;;;;5055621;28;20045;-19
2022/03/09 01:52:29;;;;;;;0.93;0.93;;;15.90;62.60;;;;;;5065282;28;20036;-20
2022/03/09 01:54:54;;;;;;;0.93;0.93;;;15.80;62.60;;;;;;5056731;28;20171;-19
2022/03/09 01:57:20;;;;;;;1.50;1.40;;;15.80;62.70;;;;;;5057989;28;20123;-19
2022/03/09 01:59:50;;;;;;;0.93;0.70;;;15.90;62.60;;;;;;5076579;28;20052;-19
2022/03/09 02:02:16;;;;;;;0.80;0.80;;;15.90;62.60;;;;;;5066286;28;20056;-19
2022/03/09 02:04:43;;;;;;;0.80;0.80;;;15.80;62.60;;;;;;5073640;28;20053;-19
2022/03/09 02:07:09;;;;;;;1.65;0.80;;;15.80;62.60;;;;;;5063591;28;20040;-19
2022/03/09 02:09:47;;;;;;;1.20;1.10;;;15.80;62.50;;;;;;5075766;28;20674;-19
2022/03/09 02:12:17;;;;;;;1.30;1.15;;;15.80;62.40;;;;;;5076224;28;20086;-19
2022/03/09 02:14:43;;;;;;;0.95;0.95;;;15.80;62.50;;;;;;5067017;28;20052;-19
2022/03/09 02:17:15;;;;;;;1.08;1.08;;;15.80;62.50;;;;;;5054908;28;20051;-19
2022/03/09 02:19:41;;;;;;;0.95;0.95;;;15.80;62.60;;;;;;5055686;28;20132;-19
2022/03/09 02:22:31;;;;;;;1.08;0.98;;;15.80;62.50;;;;;;5062561;28;20036;-19
2022/03/09 02:24:57;;;;;;;0.70;0.70;;;15.80;62.40;;;;;;5058637;28;20045;-19
2022/03/09 02:27:23;;;;;;;1.00;0.80;;;15.80;62.50;;;;;;5055494;28;20040;-19
2022/03/09 02:29:51;;;;;;;0.98;0.70;;;15.80;62.40;;;;;;5057150;28;20045;-19
2022/03/09 02:32:17;;;;;;;1.00;0.88;;;15.80;62.50;;;;;;5064925;28;20049;-19
2022/03/09 02:34:43;;;;;;;0.57;0.57;;;15.80;62.50;;;;;;5068389;28;20036;-19
2022/03/09 02:37:09;;;;;;;0.70;0.70;;;15.70;62.60;;;;;;5074434;28;20040;-19
2022/03/09 02:39:35;;;;;;;1.75;0.80;;;15.80;62.60;;;;;;5055304;28;20067;-20
2022/03/09 02:42:00;;;;;;;0.77;0.77;;;15.80;62.60;;;;;;5055826;28;20041;-19
2022/03/09 02:44:26;;;;;;;0.77;0.77;;;15.80;62.60;;;;;;5059365;28;20136;-19
2022/03/09 02:46:52;;;;;;;0.80;0.80;;;15.80;62.50;;;;;;5096096;28;20040;-19
2022/03/09 02:49:17;;;;;;;0.82;0.75;;;15.80;62.50;;;;;;5073271;28;20370;-19
2022/03/09 02:51:43;;;;;;;1.23;1.00;;;15.80;62.60;;;;;;5055259;28;20048;-19
2022/03/09 02:54:09;;;;;;;1.30;1.15;;;15.70;62.50;;;;;;5055426;28;20040;-19
2022/03/09 02:56:34;;;;;;;0.88;0.88;;;15.80;62.60;;;;;;5060140;28;20041;-19
2022/03/09 02:59:00;;;;;;;0.93;0.73;;;15.80;62.60;;;;;;5055805;28;20037;-19
2022/03/09 03:01:25;;;;;;;0.80;0.68;;;15.80;62.60;;;;;;5070499;28;20036;-19
2022/03/09 03:03:51;;;;;;;0.73;0.70;;;15.80;62.50;;;;;;5055812;28;20033;-19
2022/03/09 03:06:17;;;;;;;1.08;0.98;;;15.80;63.10;;;;;;5055542;28;20044;-19
2022/03/09 03:08:42;;;;;;;0.88;0.80;;;15.80;62.50;;;;;;5055072;28;20116;-19
2022/03/09 03:11:08;;;;;;;0.90;0.90;;;15.80;62.30;;;;;;5055470;28;20041;-19
2022/03/09 03:13:38;;;;;;;0.77;0.77;;;15.80;62.40;;;;;;5059645;28;20052;-19
2022/03/09 03:16:04;;;;;;;0.80;0.80;;;15.80;62.30;;;;;;5087722;28;20044;-19
2022/03/09 03:18:30;;;;;;;0.85;0.82;;;15.80;62.40;;;;;;5063557;28;20131;-19
2022/03/09 03:20:56;;;;;;;0.63;0.52;;;15.80;62.30;;;;;;5069931;28;20084;-19
2022/03/09 03:23:25;;;;;;;0.68;0.68;;;15.80;62.20;;;;;;5083367;28;20558;-19
2022/03/09 03:25:51;;;;;;;0.60;0.60;;;15.80;62.10;;;;;;5055329;28;20048;-19
2022/03/09 03:28:17;;;;;;;0.70;0.70;;;15.80;62.20;;;;;;5055266;28;20393;-19
2022/03/09 03:30:42;;;;;;;0.90;0.90;;;15.80;62.20;;;;;;5054796;28;20041;-19
2022/03/09 03:33:08;;;;;;;0.60;0.60;;;15.80;62.20;;;;;;5055395;28;20045;-19
2022/03/09 03:35:33;;;;;;;1.20;1.10;;;15.70;62.30;;;;;;5057087;28;20045;-19
2022/03/09 03:37:59;;;;;;;0.82;0.82;;;15.80;62.20;;;;;;5055337;28;20067;-19
2022/03/09 03:40:25;;;;;;;0.85;0.80;;;15.80;62.20;;;;;;5074488;28;20036;-19
2022/03/09 03:42:50;;;;;;;0.88;0.75;;;15.80;62.30;;;;;;5073681;28;20557;-19
2022/03/09 03:45:16;;;;;;;0.80;0.80;;;15.80;62.10;;;;;;5074314;28;20497;-19
2022/03/09 03:47:41;;;;;;;0.70;0.70;;;15.80;62.10;;;;;;5093660;28;20067;-19
2022/03/09 03:50:07;;;;;;;0.98;0.80;;;15.80;62.20;;;;;;5095324;28;20040;-19
2022/03/09 03:52:33;;;;;;;0.73;0.73;;;15.80;62.30;;;;;;5060956;28;20057;-19
2022/03/09 03:54:58;;;;;;;0.82;0.82;;;15.70;62.50;;;;;;5055076;28;20426;-19
2022/03/09 03:57:24;;;;;;;0.50;0.50;;;15.70;62.50;;;;;;5054327;28;20052;-19
2022/03/09 03:59:49;;;;;;;2.13;0.90;;;15.70;62.50;;;;;;5054698;28;20052;-19
2022/03/09 04:02:15;;;;;;;0.60;0.60;;;15.70;62.40;;;;;;5056966;28;20649;-19
2022/03/09 04:04:40;;;;;;;0.63;0.63;;;15.70;62.50;;;;;;5061686;28;20135;-19
2022/03/09 04:07:06;;;;;;;0.70;0.60;;;15.70;62.60;;;;;;5063420;28;20075;-19
2022/03/09 04:09:32;;;;;;;0.95;0.60;;;15.70;62.50;;;;;;5074312;28;20044;-19
2022/03/09 04:11:57;;;;;;;0.60;0.60;;;15.70;62.40;;;;;;5073865;28;20458;-19
2022/03/09 04:14:23;;;;;;;0.73;0.70;;;15.70;62.50;;;;;;5077836;28;20041;-19
2022/03/09 04:16:49;;;;;;;0.95;0.80;;;15.70;62.30;;;;;;5058658;28;20060;-19
2022/03/09 04:19:15;;;;;;;1.23;0.75;;;15.70;62.50;;;;;;5058100;28;20045;-19
2022/03/09 04:21:41;;;;;;;0.57;0.57;;;15.80;62.30;;;;;;5060650;28;20047;-19
2022/03/09 04:24:06;;;;;;;0.50;0.50;;;15.70;62.30;;;;;;5067788;28;20068;-19
2022/03/09 04:26:32;;;;;;;0.50;0.50;;;15.70;62.20;;;;;;5057905;28;20036;-19
2022/03/09 04:28:58;;;;;;;0.80;0.80;;;15.70;62.60;;;;;;5064357;28;20517;-19
2022/03/09 04:31:24;;;;;;;0.60;0.60;;;15.60;62.60;;;;;;5075614;28;20045;-19
2022/03/09 04:33:50;;;;;;;0.60;0.60;;;15.60;62.70;;;;;;5070788;28;20063;-19
2022/03/09 04:36:15;;;;;;;0.88;0.80;;;15.60;62.60;;;;;;5062358;28;20060;-19
2022/03/09 04:38:41;;;;;;;0.60;0.60;;;15.60;62.70;;;;;;5062163;28;20095;-19
2022/03/09 04:41:06;;;;;;;0.75;0.63;;;15.60;62.80;;;;;;5058309;28;20382;-19
2022/03/09 04:43:32;;;;;;;1.35;0.80;;;15.60;62.90;;;;;;5057158;28;20048;-19
2022/03/09 04:45:58;;;;;;;0.70;0.70;;;15.50;62.80;;;;;;5087496;28;20032;-19
2022/03/09 04:48:23;;;;;;;0.75;0.75;;;15.50;62.90;;;;;;5060956;28;20041;-19
2022/03/09 04:50:49;;;;;;;0.50;0.50;;;15.60;62.80;;;;;;5057920;28;20406;-19
2022/03/09 04:53:15;;;;;;;0.70;0.70;;;15.50;62.80;;;;;;5057314;28;20049;-19
2022/03/09 04:55:40;;;;;;;0.50;0.50;;;15.50;62.90;;;;;;5057210;28;20481;-19
2022/03/09 04:58:06;;;;;;;0.63;0.50;;;15.50;62.90;;;;;;5057836;28;20055;-19
2022/03/09 05:00:31;;;;;;;0.75;0.63;;;15.50;63.00;;;;;;5057304;28;20514;-19
2022/03/09 05:02:57;;;;;;;0.70;0.70;;;15.50;62.90;;;;;;5073169;28;20102;-19
2022/03/09 05:05:22;;;;;;;0.63;0.60;;;15.50;62.90;;;;;;5057459;28;20044;-19
2022/03/09 05:07:48;;;;;;;0.68;0.68;;;15.50;62.80;;;;;;5056635;28;20540;-19
2022/03/09 05:10:14;;;;;;;0.60;0.60;;;15.50;63.00;;;;;;5057496;28;20069;-19
2022/03/09 05:12:39;;;;;;;0.57;0.57;;;15.50;62.90;;;;;;5057112;28;20041;-19
2022/03/09 05:15:05;;;;;;;0.45;0.45;;;15.60;63.50;;;;;;5088692;28;20048;-19
2022/03/09 05:17:31;;;;;;;0.77;0.77;;;15.60;63.60;;;;;;5079625;28;20124;-19
2022/03/09 05:19:57;;;;;;;1.02;0.82;;;15.60;64.60;;;;;;5057256;28;20044;-19
2022/03/09 05:22:22;;;;;;;0.65;0.60;;;15.60;64.10;;;;;;5066497;28;20041;-19
2022/03/09 05:24:48;;;;;;;0.70;0.68;;;15.60;64.20;;;;;;5058672;28;20037;-19
2022/03/09 05:27:13;;;;;;;0.60;0.60;;;15.60;64.10;;;;;;5057216;28;20045;-19
2022/03/09 05:29:39;;;;;;;0.52;0.52;;;15.60;64.30;;;;;;5056554;28;20082;-19
2022/03/09 05:32:05;;;;;;;0.60;0.60;;;15.60;64.30;;;;;;5063406;28;20052;-19
2022/03/09 05:34:31;;;;;;;0.70;0.70;;;15.60;64.20;;;;;;5073714;28;20048;-19
2022/03/09 05:36:56;;;;;;;1.02;0.98;;;15.60;64.30;;;;;;5075194;28;20632;-19
2022/03/09 05:39:22;;;;;;;0.60;0.60;;;15.60;64.30;;;;;;5061873;28;20516;-19
2022/03/09 05:41:47;;;;;;;0.70;0.70;;;15.60;64.30;;;;;;5058896;28;20040;-20
2022/03/09 05:44:14;;;;;;;0.70;0.70;;;15.60;64.30;;;;;;5067495;28;20052;-19
2022/03/09 05:46:39;;;;;;;1.10;1.00;;;15.60;64.40;;;;;;5060597;28;20128;-19
2022/03/09 05:49:05;;;;;;;1.10;1.10;;;15.60;64.50;;;;;;5063341;28;20076;-19
2022/03/09 05:51:31;;;;;;;1.05;0.80;;;15.50;64.50;;;;;;5063728;28;20036;-19
2022/03/09 05:53:57;;;;;;;1.02;1.02;;;15.50;64.60;;;;;;5070405;28;20047;-20
2022/03/09 05:56:23;;;;;;;0.90;0.90;;;15.50;64.50;;;;;;5076772;28;20109;-19
2022/03/09 05:58:48;;;;;;;0.95;0.90;;;15.50;64.40;;;;;;5073236;28;20048;-19
2022/03/09 06:01:14;;;;;;;0.60;0.60;;;15.50;64.50;;;;;;5065276;28;20055;-19
2022/03/09 06:03:39;;;;;;;0.80;0.80;;;15.50;64.60;;;;;;5062738;28;20037;-19
2022/03/09 06:06:05;;;;;;;0.73;0.73;;;15.60;65.00;;;;;;5073522;28;20056;-19
2022/03/09 06:08:31;;;;;;;1.15;0.93;;;15.60;64.60;;;;;;5070626;28;20039;-19
2022/03/09 06:10:57;;;;;;;1.13;0.77;;;15.60;65.00;;;;;;5064705;28;20143;-19
2022/03/09 06:13:22;;;;;;;1.38;0.93;;;15.60;66.50;;;;;;5069231;28;20098;-19
2022/03/09 06:15:49;;;;;;;1.83;0.93;;;15.60;66.80;;;;;;5076852;28;20087;-19
2022/03/09 06:18:15;;;;;;;2.85;1.25;;;15.70;66.40;;;;;;5074966;28;20040;-19
2022/03/09 06:20:40;;;;;;;0.82;0.82;;;15.70;66.70;;;;;;5061975;28;20052;-19
2022/03/09 06:23:06;;;;;;;0.80;0.80;;;15.70;66.50;;;;;;5070627;28;20052;-19
2022/03/09 06:25:34;;;;;;;1.02;1.02;;;15.70;66.30;;;;;;5073713;28;20044;-19
2022/03/09 06:28:00;;;;;;;0.60;0.60;;;15.70;66.10;;;;;;5071930;28;20048;-19
2022/03/09 06:30:25;;;;;;;1.13;1.10;;;15.70;66.20;;;;;;4713483;28;10000354;-19
2022/03/09 06:32:51;;;;;;;2.03;1.00;;;15.80;67.10;;;;;;5063721;28;20075;-19
2022/03/09 06:35:17;;;;;;;0.70;0.70;;;15.80;66.50;;;;;;5071572;28;20044;-19
2022/03/09 06:37:42;;;;;;;2.40;0.90;;;15.80;66.50;;;;;;5061671;28;20040;-19
2022/03/09 06:40:09;;;;;;;0.88;0.85;;;15.80;66.50;;;;;;5071717;28;20055;-19
2022/03/09 06:42:35;;;;;;;2.88;1.27;;;15.80;67.80;;;;;;5065455;28;20711;-19
2022/03/09 06:45:01;;;;;;;2.45;1.10;;;15.90;67.80;;;;;;5064250;28;20048;-19
2022/03/09 06:47:26;;;;;;;2.45;0.90;;;15.80;67.30;;;;;;5071867;28;20093;-19
2022/03/09 06:49:52;;;;;;;1.23;0.85;;;15.70;67.80;;;;;;5064443;28;20056;-19
2022/03/09 06:52:18;;;;;;;1.63;0.95;;;15.80;67.20;;;;;;5075310;28;20048;-19
2022/03/09 06:54:43;;;;;;;2.13;1.00;;;15.80;67.80;;;;;;5075096;28;20045;-19
2022/03/09 06:57:09;;;;;;;2.95;0.85;;;15.70;67.30;;;;;;5067162;28;20045;-19
2022/03/09 06:59:35;;;;;;;3.53;0.80;;;15.70;67.30;;;;;;5055098;28;20045;-19
2022/03/09 07:02:00;;;;;;;1.55;1.00;;;15.80;67.00;;;;;;5055670;28;20033;-19
2022/03/09 07:04:26;;;;;;;2.03;0.95;;;15.80;67.00;;;;;;5055654;28;20056;-19
2022/03/09 07:06:51;;;;;;;1.83;1.23;;;15.80;67.30;;;;;;5054569;28;20037;-19
2022/03/09 07:09:17;;;;;;;4.30;1.20;;;15.70;67.50;;;;;;5055393;28;20037;-19
2022/03/09 07:11:44;;;;;;;1.25;0.90;;;15.80;67.90;;;;;;5056655;28;20061;-19
2022/03/09 07:14:10;;;;;;;2.33;0.88;;;15.80;67.70;;;;;;5081352;28;20047;-19
2022/03/09 07:16:36;;;;;;;5.68;1.23;;;15.80;67.70;;;;;;5059241;28;20052;-19
2022/03/09 07:19:01;;;;;;;2.88;0.85;;;15.80;67.60;;;;;;5047348;28;20068;-19
2022/03/09 07:21:27;;;;;;;3.05;1.00;;;15.80;66.90;;;;;;5046786;28;20130;-19
2022/03/09 07:23:53;;;;;;;1.50;0.80;;;15.90;67.30;;;;;;5047065;28;21335;-19
2022/03/09 07:26:18;;;;;;;3.40;0.75;;;15.90;67.10;;;;;;5051932;28;20037;-19
2022/03/09 07:28:44;;;;;;;0.88;0.70;;;15.80;67.10;;;;;;5052773;28;20574;-19
2022/03/09 07:31:10;;;;;;;1.17;0.73;;;15.80;67.10;;;;;;5045358;28;20052;-19
2022/03/09 07:33:35;;;;;;;1.08;0.80;;;15.90;66.80;;;;;;5059902;28;20958;-19
2022/03/09 07:36:01;;;;;;;1.00;0.88;;;15.90;66.70;;;;;;5045393;28;20417;-19
2022/03/09 07:38:27;;;;;;;2.22;0.70;;;15.90;66.60;;;;;;5042005;28;20057;-19
2022/03/09 07:40:53;;;;;;;2.72;0.68;;;15.90;66.80;;;;;;5052514;28;20072;-20
2022/03/09 07:43:19;;;;;;;1.33;0.60;;;15.90;66.70;;;;;;5043062;28;20084;-19
2022/03/09 07:45:45;;;;;;;4.15;1.08;;;15.90;66.50;;;;;;5042603;28;20045;-19
2022/03/09 07:48:11;;;;;;;0.50;0.50;;;15.90;66.20;;;;;;5055875;28;20155;-19
2022/03/09 07:50:37;;;;;;;1.30;0.85;;;15.90;66.10;;;;;;5061245;28;20497;-19
2022/03/09 07:53:06;;;;;;;0.85;0.68;;;15.90;66.10;;;;;;5050238;28;20901;-19
2022/03/09 07:55:32;;;;;;;1.10;0.70;;;15.90;66.00;;;;;;5054105;28;20066;-20
2022/03/09 07:57:57;;;;;;;1.48;0.88;;;15.90;66.10;;;;;;5047576;28;20064;-20
2022/03/09 08:00:23;;;;;;;1.20;0.73;;;16.00;66.00;;;;;;5057661;28;20052;-19
2022/03/09 08:02:49;;;;;;;0.50;0.50;;;16.00;66.00;;;;;;5052315;28;20147;-19
2022/03/09 08:05:15;;;;;;;0.55;0.50;;;16.00;65.90;;;;;;5053451;28;20584;-19
2022/03/09 08:07:41;;;;;;;0.70;0.50;;;16.00;66.20;;;;;;5053120;28;20053;-19
2022/03/09 08:10:08;;;;;;;0.93;0.70;;;16.00;65.90;;;;;;5054851;28;20501;-19
2022/03/09 08:12:34;;;;;;;0.85;0.82;;;16.00;65.60;;;;;;5050591;28;20048;-19
2022/03/09 08:15:00;;;;;;;1.20;0.60;;;16.00;66.10;;;;;;5046530;28;20045;-19
2022/03/09 08:17:25;;;;;;;0.50;0.50;;;16.00;65.80;;;;;;5049597;28;20052;-21
2022/03/09 08:19:51;;;;;;;2.35;0.70;;;16.00;65.60;;;;;;5043611;28;20045;-22
2022/03/09 08:22:16;;;;;;;0.70;0.60;;;16.00;65.50;;;;;;5047488;28;20079;-23
2022/03/09 08:24:42;;;;;;;0.57;0.50;;;16.10;65.60;;;;;;5046724;28;20058;-22
2022/03/09 08:27:08;;;;;;;0.60;0.60;;;16.10;65.30;;;;;;5044366;28;20057;-21
2022/03/09 08:29:33;;;;;;;1.10;0.63;;;16.10;65.50;;;;;;5045340;28;20106;-21
2022/03/09 08:31:59;;;;;;;0.55;0.55;;;16.10;66.10;;;;;;5052594;28;20053;-21
2022/03/09 08:34:24;;;;;;;0.40;0.40;;;16.20;65.10;;;;;;5047080;28;20057;-21
2022/03/09 08:36:50;;;;;;;1.10;0.60;;;16.20;65.10;;;;;;5054096;28;20041;-22
2022/03/09 08:39:15;;;;;;;1.65;0.60;;;16.20;65.20;;;;;;5053012;28;20036;-21
2022/03/09 08:41:44;;;;;;;0.45;0.40;;;16.20;65.00;;;;;;5044710;28;20930;-21
2022/03/09 08:44:09;;;;;;;0.40;0.40;;;16.20;65.80;;;;;;5057279;28;20053;-22
2022/03/09 08:46:35;;;;;;;0.77;0.70;;;16.20;65.00;;;;;;5053537;28;20102;-22
2022/03/09 08:49:01;;;;;;;0.68;0.47;;;16.30;64.90;;;;;;5052695;28;20117;-22
2022/03/09 08:51:27;;;;;;;0.60;0.50;;;16.30;64.80;;;;;;5046144;28;20049;-19
2022/03/09 08:53:52;;;;;;;1.35;0.50;;;16.30;64.80;;;;;;5042681;28;20055;-19
2022/03/09 08:56:18;;;;;;;0.90;0.57;;;16.40;64.70;;;;;;5047090;28;20160;-21
2022/03/09 08:58:44;;;;;;;0.57;0.57;;;16.40;64.80;;;;;;5040528;28;20053;-21
2022/03/09 09:01:10;;;;;;;0.55;0.43;;;16.40;65.40;;;;;;5048836;28;20080;-21
2022/03/09 09:03:35;;;;;;;0.40;0.40;;;16.40;64.50;;;;;;5057058;28;20055;-21
2022/03/09 09:06:01;;;;;;;1.02;0.43;;;16.40;64.50;;;;;;5047636;28;20138;-22
2022/03/09 09:08:27;;;;;;;2.17;0.85;;;16.40;64.40;;;;;;5061407;28;20517;-21
2022/03/09 09:10:52;;;;;;;1.23;0.85;;;16.40;64.70;;;;;;5059051;28;20087;-22
2022/03/09 09:13:18;;;;;;;3.67;0.68;;;16.30;64.60;;;;;;5053495;28;20055;-21
2022/03/09 09:15:44;;;;;;;0.35;0.35;;;16.50;64.30;;;;;;5048476;28;20048;-22
2022/03/09 09:18:09;;;;;;;1.10;0.40;;;16.40;64.30;;;;;;5053564;28;20185;-21
2022/03/09 09:20:35;;;;;;;2.05;0.50;;;16.40;64.40;;;;;;5060877;28;20075;-21
2022/03/09 09:23:01;;;;;;;0.80;0.55;;;16.50;64.30;;;;;;5052465;28;20053;-22
2022/03/09 09:25:26;;;;;;;0.60;0.40;;;16.40;64.10;;;;;;5046600;28;20056;-22
2022/03/09 09:27:52;;;;;;;1.95;0.40;;;16.50;64.20;;;;;;5049145;28;20041;-22
2022/03/09 09:30:18;;;;;;;1.13;0.40;;;16.50;64.10;;;;;;5045619;28;20057;-22
2022/03/09 09:32:44;;;;;;;0.40;0.40;;;16.50;64.00;;;;;;5056775;28;20056;-22
2022/03/09 09:35:12;;;;;;;0.60;0.60;;;16.50;63.90;;;;;;5055245;28;20055;-22
2022/03/09 09:37:38;;;;;;;0.95;0.50;;;16.60;63.80;;;;;;5044137;28;20049;-22
2022/03/09 09:40:06;;;;;;;0.80;0.55;;;16.60;63.90;;;;;;5050962;28;20056;-22
2022/03/09 09:42:32;;;;;;;1.05;0.60;;;16.70;63.70;;;;;;5054283;28;20135;-22
2022/03/09 09:45:00;;;;;;;2.30;0.40;;;16.70;63.30;;;;;;5054020;28;20101;-22
2022/03/09 09:47:27;;;;;;;0.60;0.60;;;16.80;63.20;;;;;;5054249;28;20063;-19
2022/03/09 09:49:53;;;;;;;0.88;0.45;;;16.70;63.50;;;;;;5054432;28;20049;-22
2022/03/09 09:52:21;;;;;;;0.60;0.60;;;16.60;63.80;;;;;;5058258;28;20044;-22
2022/03/09 09:54:51;;;;;;;1.25;0.50;;;16.60;64.00;;;;;;5059815;28;20078;-22
2022/03/09 09:57:17;;;;;;;0.50;0.40;;;16.60;64.20;;;;;;5074970;28;20565;-21
2022/03/09 09:59:44;;;;;;;0.57;0.55;;;16.60;64.20;;;;;;5077436;28;20458;-22
2022/03/09 10:02:10;;;;;;;5.78;5.20;;;16.60;64.10;;;;;;5076183;28;20174;-22
2022/03/09 10:04:38;;;;;;;15.40;9.20;;;16.70;63.90;;;;;;5072356;28;20647;-21
2022/03/09 10:07:04;;;;;;;9.15;6.72;;;16.60;64.00;;;;;;5070692;28;20045;-21
2022/03/09 10:09:38;;;;;;;8.63;5.68;;;16.70;64.10;;;;;;5076248;28;20588;-21
2022/03/09 10:12:05;;;;;;;9.45;7.43;;;16.70;63.90;;;;;;5075457;28;20100;-21
2022/03/09 10:14:46;;;;;;;10.90;7.60;;;16.70;64.00;;;;;;5080434;28;20035;-21
2022/03/09 10:17:15;;;;;;;10.25;7.45;;;16.70;64.10;;;;;;5095657;28;20036;-22
2022/03/09 10:19:43;;;;;;;9.98;7.53;;;16.80;64.10;;;;;;5073820;28;20057;-22
2022/03/09 10:22:31;;;;;;;11.70;8.18;;;16.80;64.10;;;;;;5062830;28;20049;-22
2022/03/09 10:25:16;;;;;;;12.65;9.02;;;16.70;64.10;;;;;;5062916;28;20502;-22
2022/03/09 10:27:53;;;;;;;10.15;7.38;;;16.70;64.10;;;;;;5061589;28;20048;-21
2022/03/09 10:30:20;;;;;;;10.35;7.93;;;16.90;63.70;;;;;;5066009;28;20041;-22
2022/03/09 10:33:00;;;;;;;9.32;7.28;;;16.90;63.60;;;;;;5063631;28;20037;-21
2022/03/09 10:35:31;;;;;;;10.23;7.57;;;16.90;63.50;;;;;;5066337;28;20049;-22
2022/03/09 10:38:04;;;;;;;7.00;6.38;;;17.00;63.30;;;;;;5066201;28;20049;-22
2022/03/09 10:40:31;;;;;;;9.23;7.27;;;17.20;62.80;;;;;;5055823;28;20056;-21
2022/03/09 10:43:20;;;;;;;8.32;6.35;;;17.20;62.70;;;;;;5067374;28;20286;-22
2022/03/09 10:46:04;;;;;;;8.02;6.63;;;17.30;62.60;;;;;;5079569;28;20044;-22
2022/03/09 10:48:56;;;;;;;7.70;5.95;;;17.30;62.50;;;;;;5068217;28;20149;-22
2022/03/09 10:51:33;;;;;;;7.85;6.30;;;17.30;62.50;;;;;;5063245;28;20040;-19
2022/03/09 10:54:00;;;;;;;6.72;5.97;;;17.40;62.40;;;;;;5054617;28;20077;-19
2022/03/09 10:56:26;;;;;;;7.38;6.07;;;17.50;62.30;;;;;;5055106;28;20047;-19
2022/03/09 10:58:52;;;;;;;7.05;5.43;;;17.50;62.40;;;;;;5064547;28;20044;-19
2022/03/09 11:01:18;;;;;;;6.45;5.72;;;17.50;62.80;;;;;;5054917;28;20048;-21
2022/03/09 11:03:45;;;;;;;7.15;5.53;;;17.60;62.50;;;;;;5063735;28;20052;-22
2022/03/09 11:06:11;;;;;;;6.60;5.55;;;17.60;61.70;;;;;;5069053;28;20041;-21
2022/03/09 11:08:37;;;;;;;6.60;5.82;;;17.60;61.70;;;;;;5066222;28;20049;-22
2022/03/09 11:11:04;;;;;;;6.22;5.63;;;17.70;61.70;;;;;;5063037;28;20123;-22
2022/03/09 11:13:31;;;;;;;6.05;5.45;;;17.70;61.70;;;;;;5071989;28;20143;-22
2022/03/09 11:15:56;;;;;;;5.90;5.30;;;17.70;61.50;;;;;;5088020;28;20047;-22
2022/03/09 11:18:24;;;;;;;6.38;4.90;;;17.70;61.40;;;;;;5065970;28;20124;-22
2022/03/09 11:20:52;;;;;;;5.47;5.00;;;17.80;61.20;;;;;;5054136;28;20071;-22
2022/03/09 11:23:18;;;;;;;4.85;4.45;;;17.80;61.00;;;;;;5070734;28;20497;-22
2022/03/09 11:26:07;;;;;;;5.25;4.80;;;17.80;61.00;;;;;;5073121;28;20086;-22
2022/03/09 11:28:34;;;;;;;5.03;4.28;;;17.80;61.00;;;;;;5071117;28;20049;-21
2022/03/09 11:31:21;;;;;;;4.47;4.13;;;17.80;61.00;;;;;;5067670;28;20045;-19
2022/03/09 11:33:56;;;;;;;4.45;3.88;;;17.80;60.90;;;;;;5064289;28;20473;-20
2022/03/09 11:36:21;;;;;;;4.10;3.75;;;17.90;61.10;;;;;;5059684;28;20045;-19
2022/03/09 11:38:48;;;;;;;6.00;3.55;;;17.90;61.00;;;;;;5058985;28;20594;-19
2022/03/09 11:41:24;;;;;;;3.13;2.92;;;18.00;60.80;;;;;;5074163;28;20044;-19
2022/03/09 11:43:51;;;;;;;8.48;3.95;;;18.00;61.00;;;;;;5071559;28;20101;-19
2022/03/09 11:46:17;;;;;;;3.80;3.50;;;18.10;60.90;;;;;;5065911;28;20447;-19
2022/03/09 11:48:50;;;;;;;4.05;3.20;;;18.10;61.50;;;;;;5062875;28;20074;-19
2022/03/09 11:51:17;;;;;;;3.53;3.20;;;18.10;61.50;;;;;;5054136;28;20132;-20
2022/03/09 11:53:47;;;;;;;3.20;2.90;;;18.10;61.90;;;;;;4704831;28;10000493;-22
2022/03/09 11:56:27;;;;;;;3.17;2.97;;;18.20;62.00;;;;;;5053330;28;20604;-22
2022/03/09 11:59:15;;;;;;;3.60;3.30;;;18.20;61.90;;;;;;5064437;28;20083;-22
2022/03/09 12:01:57;;;;;;;3.40;3.20;;;18.20;61.60;;;;;;5062253;28;20071;-22
2022/03/09 12:04:50;;;;;;;3.60;3.30;;;18.20;61.80;;;;;;5064736;28;20045;-22
2022/03/09 12:07:29;;;;;;;3.70;3.50;;;18.10;61.60;;;;;;5068419;28;20135;-22
2022/03/09 12:09:58;;;;;;;3.47;3.17;;;18.10;61.60;;;;;;5065305;28;20067;-22
2022/03/09 12:12:25;;;;;;;3.53;3.00;;;18.10;61.90;;;;;;5063770;28;20564;-22
2022/03/09 12:15:06;;;;;;;3.80;3.50;;;18.10;61.70;;;;;;5066689;28;20037;-22
2022/03/09 12:17:36;;;;;;;4.30;4.00;;;18.10;61.80;;;;;;5060745;28;20045;-22
2022/03/09 12:20:20;;;;;;;4.10;3.60;;;18.10;61.90;;;;;;5068860;28;20285;-20
2022/03/09 12:22:55;;;;;;;11.23;9.45;;;18.10;61.50;;;;;;5065773;28;20573;-22
2022/03/09 12:25:40;;;;;;;27.77;17.08;;;18.10;62.40;;;;;;5055238;28;20041;-22
2022/03/09 12:28:24;;;;;;;;;;;18.10;62.10;;;;;;5068094;28;20044;-22
2022/03/09 12:31:00;;;;;;;26.40;15.38;;;18.20;61.40;;;;;;5070392;28;19916;-22
2022/03/09 12:33:25;;;;;;;26.15;15.73;;;18.20;61.40;;;;;;5066509;28;20052;-22
2022/03/09 12:36:08;;;;;;;27.08;16.60;;;18.30;61.20;;;;;;5056892;28;20048;-22
2022/03/09 12:38:37;;;;;;;22.88;14.38;;;18.30;61.10;;;;;;5056618;28;20123;-22
2022/03/09 12:41:03;;;;;;;24.92;15.75;;;18.30;61.10;;;;;;5064751;28;20052;-22
2022/03/09 12:43:48;;;;;;;23.85;15.48;;;18.30;61.10;;;;;;5075581;28;20041;-22
2022/03/09 12:46:13;;;;;;;25.08;14.43;;;18.30;61.00;;;;;;5065566;28;20601;-20